createdAt,value
2017-07-24T00:00:11.812Z,98.52
2017-07-24T00:01:13.049Z,98.71
2017-07-24T00:02:14.285Z,98.33
2017-07-24T00:03:15.545Z,98.62
2017-07-24T00:04:16.808Z,99.1
2017-07-24T00:05:18.054Z,98.43
2017-07-24T00:06:19.293Z,98.05
2017-07-24T00:07:20.533Z,97.95
2017-07-24T00:08:21.822Z,98.05
2017-07-24T00:09:23.111Z,98.52
2017-07-24T00:10:24.410Z,98.33
2017-07-24T00:11:25.651Z,98.14
2017-07-24T00:12:26.906Z,98.43
2017-07-24T00:13:28.121Z,97.75
2017-07-24T00:14:29.462Z,97.66
2017-07-24T00:15:30.702Z,97.66
2017-07-24T00:16:31.957Z,97.95
2017-07-24T00:17:33.180Z,97.95
2017-07-24T00:18:34.420Z,98.05
2017-07-24T00:19:35.664Z,98.05
2017-07-24T00:20:36.977Z,97.75
2017-07-24T00:21:38.218Z,98.05
2017-07-24T00:22:39.457Z,97.85
2017-07-24T00:23:40.697Z,97.18
2017-07-24T00:24:41.934Z,96.89
2017-07-24T00:25:43.246Z,97.38
2017-07-24T00:26:44.485Z,97.47
2017-07-24T00:27:45.792Z,97.38
2017-07-24T00:28:47.169Z,97.56
2017-07-24T00:29:48.480Z,97.47
2017-07-24T00:30:49.719Z,97.18
2017-07-24T00:31:51.014Z,97.09
2017-07-24T00:32:52.243Z,97.09
2017-07-24T00:33:53.485Z,97.18
2017-07-24T00:34:54.828Z,97.09
2017-07-24T00:35:56.076Z,96.89
2017-07-24T00:36:57.316Z,97.28
2017-07-24T00:37:58.558Z,97.47
2017-07-24T00:38:59.820Z,97.28
2017-07-24T00:40:01.110Z,96.8
2017-07-24T00:41:02.408Z,97.38
2017-07-24T00:42:03.636Z,97.66
2017-07-24T00:43:04.866Z,97.75
2017-07-24T00:44:06.105Z,97.56
2017-07-24T00:45:07.436Z,97.66
2017-07-24T00:46:08.813Z,97.38
2017-07-24T00:47:10.062Z,97.28
2017-07-24T00:48:11.298Z,97.56
2017-07-24T00:49:12.519Z,97.85
2017-07-24T00:50:13.766Z,97.75
2017-07-24T00:51:15.037Z,98.52
2017-07-24T00:52:16.271Z,98.14
2017-07-24T00:53:17.529Z,97.66
2017-07-24T00:54:18.759Z,97.56
2017-07-24T00:55:20.007Z,97.56
2017-07-24T00:56:21.247Z,97.56
2017-07-24T00:57:22.466Z,97.66
2017-07-24T00:58:23.720Z,97.56
2017-07-24T00:59:25.128Z,97.95
2017-07-24T01:00:26.562Z,97.95
2017-07-24T01:01:27.810Z,97.85
2017-07-24T01:02:29.048Z,97.95
2017-07-24T01:03:30.285Z,97.75
2017-07-24T01:04:31.519Z,97.85
2017-07-24T01:05:32.870Z,98.05
2017-07-24T01:06:34.097Z,97.75
2017-07-24T01:07:35.349Z,97.56
2017-07-24T01:08:36.585Z,97.85
2017-07-24T01:09:37.823Z,97.56
2017-07-24T01:10:39.092Z,97.28
2017-07-24T01:11:40.359Z,97.47
2017-07-24T01:12:41.583Z,97.75
2017-07-24T01:13:42.820Z,97.75
2017-07-24T01:14:44.062Z,97.38
2017-07-24T01:15:45.327Z,97.75
2017-07-24T01:16:46.546Z,97.56
2017-07-24T01:17:47.795Z,97.47
2017-07-24T01:18:49.094Z,98.05
2017-07-24T01:19:50.385Z,97.95
2017-07-24T01:20:51.628Z,97.75
2017-07-24T01:21:52.861Z,98.33
2017-07-24T01:22:54.117Z,97.75
2017-07-24T01:23:55.353Z,97.75
2017-07-24T01:24:56.600Z,97.75
2017-07-24T01:25:57.856Z,98.33
2017-07-24T01:26:59.098Z,97.75
2017-07-24T01:28:00.344Z,97.75
2017-07-24T01:29:01.576Z,97.66
2017-07-24T01:30:02.827Z,97.38
2017-07-24T01:31:04.074Z,97.18
2017-07-24T01:32:05.419Z,97.18
2017-07-24T01:33:06.658Z,97.38
2017-07-24T01:34:07.897Z,97.28
2017-07-24T01:35:09.130Z,97.47
2017-07-24T01:36:10.383Z,97.75
2017-07-24T01:37:11.622Z,98.14
2017-07-24T01:38:12.970Z,98.52
2017-07-24T01:39:14.228Z,98.14
2017-07-24T01:40:15.466Z,97.75
2017-07-24T01:41:16.696Z,97.85
2017-07-24T01:42:17.939Z,97.95
2017-07-24T01:43:19.168Z,98.33
2017-07-24T01:44:20.546Z,98.24
2017-07-24T01:45:21.665Z,98.14
2017-07-24T01:46:23.001Z,97.85
2017-07-24T01:47:24.232Z,98.14
2017-07-24T01:48:25.477Z,98.33
2017-07-24T01:49:26.721Z,97.66
2017-07-24T01:50:28.069Z,97.66
2017-07-24T01:51:29.356Z,97.18
2017-07-24T01:52:30.587Z,97.18
2017-07-24T01:53:31.820Z,97.56
2017-07-24T01:54:33.068Z,97.18
2017-07-24T01:55:34.292Z,97.38
2017-07-24T01:56:35.550Z,96.8
2017-07-24T01:57:36.766Z,96.7
2017-07-24T01:58:38.120Z,96.89
2017-07-24T01:59:39.353Z,96.51
2017-07-24T02:00:40.606Z,96.03
2017-07-24T02:01:41.825Z,96.61
2017-07-24T02:02:43.074Z,96.13
2017-07-24T02:03:44.346Z,96.42
2017-07-24T02:04:45.552Z,96.42
2017-07-24T02:05:46.793Z,96.7
2017-07-24T02:06:48.030Z,96.51
2017-07-24T02:07:49.381Z,96.32
2017-07-24T02:08:50.667Z,96.61
2017-07-24T02:09:51.943Z,96.51
2017-07-24T02:10:53.294Z,96.89
2017-07-24T02:11:54.527Z,96.32
2017-07-24T02:12:55.766Z,96.32
2017-07-24T02:13:57.003Z,96.7
2017-07-24T02:14:58.244Z,96.51
2017-07-24T02:15:59.574Z,96.8
2017-07-24T02:17:00.873Z,96.61
2017-07-24T02:18:02.125Z,96.61
2017-07-24T02:19:03.344Z,96.51
2017-07-24T02:20:04.577Z,96.61
2017-07-24T02:21:05.808Z,96.51
2017-07-24T02:22:07.147Z,96.32
2017-07-24T02:23:08.388Z,95.65
2017-07-24T02:24:09.625Z,95.94
2017-07-24T02:25:10.856Z,95.27
2017-07-24T02:26:12.094Z,95.27
2017-07-24T02:27:13.333Z,95.46
2017-07-24T02:28:14.735Z,95.27
2017-07-24T02:29:15.972Z,95.17
2017-07-24T02:30:17.243Z,95.46
2017-07-24T02:31:18.480Z,95.27
2017-07-24T02:32:19.713Z,95.46
2017-07-24T02:33:20.991Z,95.56
2017-07-24T02:34:22.222Z,95.36
2017-07-24T02:35:23.471Z,95.65
2017-07-24T02:36:24.706Z,95.56
2017-07-24T02:37:25.943Z,95.84
2017-07-24T02:38:27.186Z,95.56
2017-07-24T02:39:28.425Z,95.94
2017-07-24T02:40:29.664Z,95.94
2017-07-24T02:41:30.929Z,95.94
2017-07-24T02:42:32.224Z,96.22
2017-07-24T02:43:33.459Z,96.51
2017-07-24T02:44:34.704Z,97.38
2017-07-24T02:45:35.935Z,97.28
2017-07-24T02:46:37.166Z,97.28
2017-07-24T02:47:38.403Z,97.18
2017-07-24T02:48:39.646Z,97.56
2017-07-24T02:49:40.886Z,97.66
2017-07-24T02:50:42.134Z,97.66
2017-07-24T02:51:43.377Z,98.24
2017-07-24T02:52:44.619Z,97.38
2017-07-24T02:53:45.929Z,97.66
2017-07-24T02:54:47.264Z,97.38
2017-07-24T02:55:48.547Z,97.75
2017-07-24T02:56:49.786Z,97.38
2017-07-24T02:57:51.029Z,96.89
2017-07-24T02:58:52.277Z,97.09
2017-07-24T02:59:53.631Z,97.56
2017-07-24T03:00:55.024Z,97.56
2017-07-24T03:01:56.252Z,97.75
2017-07-24T03:02:57.509Z,97.56
2017-07-24T03:03:58.730Z,97.38
2017-07-24T03:04:59.989Z,97.66
2017-07-24T03:06:01.217Z,97.66
2017-07-24T03:07:02.577Z,97.75
2017-07-24T03:08:03.808Z,97.28
2017-07-24T03:09:05.045Z,97.28
2017-07-24T03:10:06.294Z,97.66
2017-07-24T03:11:07.545Z,97.47
2017-07-24T03:12:08.814Z,97.38
2017-07-24T03:13:10.041Z,97.28
2017-07-24T03:14:11.394Z,97.28
2017-07-24T03:15:12.621Z,97.18
2017-07-24T03:16:13.857Z,97.38
2017-07-24T03:17:15.101Z,97.38
2017-07-24T03:18:16.336Z,97.18
2017-07-24T03:19:17.577Z,97.38
2017-07-24T03:20:18.948Z,97.38
2017-07-24T03:21:20.171Z,96.89
2017-07-24T03:22:21.400Z,97.09
2017-07-24T03:23:22.633Z,97.09
2017-07-24T03:24:23.868Z,97.66
2017-07-24T03:25:25.105Z,97.18
2017-07-24T03:26:26.340Z,96.8
2017-07-24T03:27:27.579Z,96.42
2017-07-24T03:28:28.820Z,97.09
2017-07-24T03:29:30.058Z,97.56
2017-07-24T03:30:31.347Z,97.18
2017-07-24T03:31:32.644Z,97.56
2017-07-24T03:32:33.940Z,97.95
2017-07-24T03:33:35.297Z,97.85
2017-07-24T03:34:36.538Z,98.05
2017-07-24T03:35:37.787Z,98.43
2017-07-24T03:36:39.084Z,98.52
2017-07-24T03:37:40.328Z,98.52
2017-07-24T03:38:41.650Z,98.14
2017-07-24T03:39:42.959Z,97.95
2017-07-24T03:40:44.205Z,98.24
2017-07-24T03:41:45.437Z,98.52
2017-07-24T03:42:46.666Z,98.62
2017-07-24T03:43:47.905Z,98.33
2017-07-24T03:44:49.223Z,98.33
2017-07-24T03:45:50.465Z,98.71
2017-07-24T03:46:51.702Z,98.33
2017-07-24T03:47:52.938Z,98.14
2017-07-24T03:48:54.175Z,98.33
2017-07-24T03:49:55.539Z,99
2017-07-24T03:50:56.807Z,99
2017-07-24T03:51:58.065Z,99.19
2017-07-24T03:52:59.279Z,98.43
2017-07-24T03:54:00.530Z,98.91
2017-07-24T03:55:01.759Z,98.62
2017-07-24T03:56:03.242Z,98.52
2017-07-24T03:57:04.533Z,99.1
2017-07-24T03:58:05.750Z,99.24
2017-07-24T03:59:06.991Z,98.71
2017-07-24T04:00:08.230Z,99.48
2017-07-24T04:01:09.473Z,99.05
2017-07-24T04:02:10.815Z,99.24
2017-07-24T04:03:12.017Z,99.52
2017-07-24T04:04:13.356Z,99.99
2017-07-24T04:05:14.691Z,99.99
2017-07-24T04:06:15.922Z,99.99
2017-07-24T04:07:17.185Z,99.99
2017-07-24T04:08:18.418Z,99.99
2017-07-24T04:09:19.743Z,99.99
2017-07-24T04:10:20.981Z,99.99
2017-07-24T04:11:22.224Z,99.99
2017-07-24T04:12:23.461Z,99.99
2017-07-24T04:13:24.697Z,99.99
2017-07-24T04:14:25.926Z,99.99
2017-07-24T04:15:27.226Z,99.99
2017-07-24T04:16:28.466Z,99.99
2017-07-24T04:17:29.708Z,99.99
2017-07-24T04:18:30.956Z,99.99
2017-07-24T04:19:32.192Z,99.99
2017-07-24T04:20:33.429Z,99.99
2017-07-24T04:21:34.929Z,99.99
2017-07-24T04:22:36.238Z,99.99
2017-07-24T04:23:37.468Z,99.99
2017-07-24T04:24:38.728Z,99.99
2017-07-24T04:25:39.945Z,99.99
2017-07-24T04:26:41.178Z,99.99
2017-07-24T04:27:42.465Z,99.99
2017-07-24T04:28:43.779Z,99.99
2017-07-24T04:29:45.120Z,99.99
2017-07-24T04:30:46.370Z,99.99
2017-07-24T04:31:47.590Z,99.99
2017-07-24T04:32:48.865Z,99.99
2017-07-24T04:33:50.120Z,99.99
2017-07-24T04:34:51.453Z,99.99
2017-07-24T04:35:52.726Z,99.99
2017-07-24T04:36:53.961Z,99.99
2017-07-24T04:37:55.206Z,99.99
2017-07-24T04:38:56.427Z,99.99
2017-07-24T04:39:57.683Z,99.99
2017-07-24T04:40:59.023Z,99.99
2017-07-24T04:42:00.271Z,99.99
2017-07-24T04:43:01.516Z,99.99
2017-07-24T04:44:02.754Z,99.99
2017-07-24T04:45:03.991Z,99.99
2017-07-24T04:46:05.218Z,99.99
2017-07-24T04:47:06.579Z,99.99
2017-07-24T04:48:07.809Z,99.99
2017-07-24T04:49:09.045Z,99.99
2017-07-24T04:50:10.275Z,99.99
2017-07-24T04:51:11.534Z,99.99
2017-07-24T04:52:12.859Z,99.99
2017-07-24T04:53:14.108Z,99.99
2017-07-24T04:54:15.387Z,99.99
2017-07-24T04:55:16.631Z,99.99
2017-07-24T04:56:17.867Z,99.99
2017-07-24T04:57:19.178Z,99.99
2017-07-24T04:58:20.415Z,99.99
2017-07-24T04:59:21.750Z,99.99
2017-07-24T05:00:22.995Z,99.99
2017-07-24T05:01:24.271Z,99.99
2017-07-24T05:02:25.515Z,99.99
2017-07-24T05:03:26.744Z,99.99
2017-07-24T05:04:28.001Z,99.99
2017-07-24T05:05:29.302Z,99.99
2017-07-24T05:06:30.535Z,99.99
2017-07-24T05:07:31.790Z,99.99
2017-07-24T05:08:33.077Z,99.99
2017-07-24T05:09:34.295Z,99.99
2017-07-24T05:10:35.659Z,99.99
2017-07-24T05:11:36.901Z,99.99
2017-07-24T05:12:38.131Z,99.99
2017-07-24T05:13:39.380Z,99.99
2017-07-24T05:14:40.603Z,99.99
2017-07-24T05:15:41.842Z,99.99
2017-07-24T05:16:43.091Z,99.99
2017-07-24T05:17:44.342Z,99.99
2017-07-24T05:18:45.575Z,99.99
2017-07-24T05:19:46.918Z,99.99
2017-07-24T05:20:48.158Z,99.99
2017-07-24T05:21:49.407Z,99.99
2017-07-24T05:22:50.650Z,99.99
2017-07-24T05:23:51.903Z,99.99
2017-07-24T05:24:53.162Z,99.99
2017-07-24T05:25:54.473Z,99.99
2017-07-24T05:26:55.690Z,99.99
2017-07-24T05:27:56.934Z,99.99
2017-07-24T05:28:58.168Z,99.99
2017-07-24T05:29:59.424Z,99.99
2017-07-24T05:31:01.010Z,99.99
2017-07-24T05:32:02.326Z,99.99
2017-07-24T05:33:03.555Z,99.99
2017-07-24T05:34:04.795Z,99.99
2017-07-24T05:35:06.034Z,99.99
2017-07-24T05:36:07.282Z,99.99
2017-07-24T05:37:08.620Z,99.99
2017-07-24T05:38:09.851Z,99.99
2017-07-24T05:39:11.090Z,99.99
2017-07-24T05:40:12.329Z,99.99
2017-07-24T05:41:13.568Z,99.99
2017-07-24T05:42:14.807Z,99.99
2017-07-24T05:43:16.146Z,99.99
2017-07-24T05:44:17.393Z,99.99
2017-07-24T05:45:18.638Z,99.99
2017-07-24T05:46:19.869Z,99.99
2017-07-24T05:47:21.106Z,99.99
2017-07-24T05:48:22.346Z,99.99
2017-07-24T05:49:23.564Z,99.99
2017-07-24T05:50:24.813Z,99.99
2017-07-24T05:51:26.101Z,99.99
2017-07-24T05:52:27.280Z,99.99
2017-07-24T05:53:28.522Z,99.99
2017-07-24T05:54:29.755Z,99.99
2017-07-24T05:55:31.021Z,99.99
2017-07-24T05:56:32.245Z,99.99
2017-07-24T05:57:33.582Z,99.99
2017-07-24T05:58:34.823Z,99.99
2017-07-24T05:59:36.062Z,99.99
2017-07-24T06:00:37.389Z,99.99
2017-07-24T06:01:38.637Z,99.99
2017-07-24T06:02:39.909Z,99.99
2017-07-24T06:03:41.146Z,99.99
2017-07-24T06:04:42.382Z,99.99
2017-07-24T06:05:43.615Z,99.99
2017-07-24T06:06:44.851Z,99.99
2017-07-24T06:07:46.083Z,99.99
2017-07-24T06:08:47.340Z,99.99
2017-07-24T06:09:48.597Z,99.99
2017-07-24T06:10:49.833Z,99.99
2017-07-24T06:11:51.059Z,99.99
2017-07-24T06:12:52.310Z,99.99
2017-07-24T06:13:53.559Z,99.99
2017-07-24T06:14:54.798Z,99.99
2017-07-24T06:15:56.069Z,99.99
2017-07-24T06:16:57.311Z,99.99
2017-07-24T06:17:58.610Z,99.99
2017-07-24T06:18:59.846Z,99.99
2017-07-24T06:20:01.091Z,99.99
2017-07-24T06:21:02.337Z,99.99
2017-07-24T06:22:03.633Z,99.99
2017-07-24T06:23:04.895Z,99.99
2017-07-24T06:24:06.145Z,99.99
2017-07-24T06:25:07.368Z,99.99
2017-07-24T06:26:08.603Z,99.99
2017-07-24T06:27:09.853Z,99.99
2017-07-24T06:28:11.086Z,99.99
2017-07-24T06:29:12.316Z,99.99
2017-07-24T06:30:13.615Z,99.99
2017-07-24T06:31:14.854Z,99.99
2017-07-24T06:32:16.090Z,99.99
2017-07-24T06:33:17.432Z,99.99
2017-07-24T06:34:18.678Z,99.99
2017-07-24T06:35:19.949Z,99.99
2017-07-24T06:36:21.163Z,99.99
2017-07-24T06:37:22.509Z,99.99
2017-07-24T06:38:23.747Z,99.99
2017-07-24T06:39:25.063Z,99.99
2017-07-24T06:40:26.285Z,99.99
2017-07-24T06:41:27.538Z,99.99
2017-07-24T06:42:28.794Z,99.99
2017-07-24T06:43:30.032Z,99.99
2017-07-24T06:44:31.272Z,99.99
2017-07-24T06:45:32.509Z,99.99
2017-07-24T06:46:33.851Z,99.99
2017-07-24T06:47:35.129Z,99.99
2017-07-24T06:48:36.474Z,99.99
2017-07-24T06:49:37.676Z,99.99
2017-07-24T06:50:38.914Z,99.99
2017-07-24T06:51:40.158Z,99.99
2017-07-24T06:52:41.414Z,99.99
2017-07-24T06:53:42.734Z,99.99
2017-07-24T06:54:43.912Z,99.99
2017-07-24T06:55:45.233Z,99.99
2017-07-24T06:56:46.472Z,99.99
2017-07-24T06:57:47.709Z,99.99
2017-07-24T06:58:48.942Z,99.99
2017-07-24T06:59:50.189Z,99.99
2017-07-24T07:00:51.418Z,99.99
2017-07-24T07:01:52.673Z,99.99
2017-07-24T07:02:53.929Z,99.99
2017-07-24T07:03:55.139Z,99.99
2017-07-24T07:04:56.374Z,99.99
2017-07-24T07:05:57.651Z,99.99
2017-07-24T07:06:59.172Z,99.99
2017-07-24T07:08:00.415Z,99.99
2017-07-24T07:09:01.650Z,99.99
2017-07-24T07:10:02.901Z,99.99
2017-07-24T07:11:04.145Z,99.91
2017-07-24T07:12:05.368Z,99.63
2017-07-24T07:13:06.630Z,98.57
2017-07-24T07:14:07.861Z,98.96
2017-07-24T07:15:09.106Z,98.57
2017-07-24T07:16:10.437Z,98.43
2017-07-24T07:17:11.673Z,98.62
2017-07-24T07:18:12.918Z,98.82
2017-07-24T07:19:14.141Z,97.95
2017-07-24T07:20:15.391Z,98.14
2017-07-24T07:21:16.667Z,96.89
2017-07-24T07:22:17.916Z,96.03
2017-07-24T07:23:19.169Z,95.07
2017-07-24T07:24:20.415Z,94.98
2017-07-24T07:25:21.663Z,94.21
2017-07-24T07:26:23.019Z,92.48
2017-07-24T07:27:24.184Z,92.19
2017-07-24T07:28:25.412Z,93.15
2017-07-24T07:29:26.655Z,94.31
2017-07-24T07:30:27.901Z,94.69
2017-07-24T07:31:29.249Z,94.79
2017-07-24T07:32:30.504Z,95.65
2017-07-24T07:33:31.897Z,94.79
2017-07-24T07:34:33.167Z,94.88
2017-07-24T07:35:34.395Z,94.88
2017-07-24T07:36:35.633Z,94.69
2017-07-24T07:37:36.885Z,94.4
2017-07-24T07:38:38.154Z,93.35
2017-07-24T07:39:39.404Z,94.02
2017-07-24T07:40:40.643Z,92.96
2017-07-24T07:41:41.887Z,93.35
2017-07-24T07:42:43.139Z,94.07
2017-07-24T07:43:44.361Z,93.3
2017-07-24T07:44:45.625Z,94.07
2017-07-24T07:45:46.858Z,93.97
2017-07-24T07:46:48.119Z,94.07
2017-07-24T07:47:49.464Z,93.88
2017-07-24T07:48:50.700Z,94.17
2017-07-24T07:49:51.943Z,94.07
2017-07-24T07:50:53.183Z,93.97
2017-07-24T07:51:54.422Z,94.88
2017-07-24T07:52:55.671Z,95.07
2017-07-24T07:53:56.924Z,94.59
2017-07-24T07:54:58.153Z,95.65
2017-07-24T07:55:59.398Z,94.88
2017-07-24T07:57:00.629Z,94.59
2017-07-24T07:58:01.925Z,94.98
2017-07-24T07:59:03.217Z,93.92
2017-07-24T08:00:04.487Z,92.39
2017-07-24T08:01:05.726Z,92.68
2017-07-24T08:02:06.952Z,92.96
2017-07-24T08:03:08.197Z,91.91
2017-07-24T08:04:09.438Z,91.52
2017-07-24T08:05:11.052Z,91.05
2017-07-24T08:06:12.287Z,91.05
2017-07-24T08:07:13.511Z,90.66
2017-07-24T08:08:14.750Z,90.28
2017-07-24T08:09:16.002Z,91.14
2017-07-24T08:10:17.219Z,91.42
2017-07-24T08:11:18.457Z,90.56
2017-07-24T08:12:19.691Z,90.66
2017-07-24T08:13:20.948Z,90.7
2017-07-24T08:14:22.172Z,90.99
2017-07-24T08:15:23.414Z,90.32
2017-07-24T08:16:24.646Z,91.09
2017-07-24T08:17:25.901Z,90.22
2017-07-24T08:18:27.196Z,90.22
2017-07-24T08:19:28.437Z,90.13
2017-07-24T08:20:29.681Z,90.42
2017-07-24T08:21:30.916Z,90.7
2017-07-24T08:22:32.153Z,90.03
2017-07-24T08:23:33.472Z,89.46
2017-07-24T08:24:34.771Z,89.26
2017-07-24T08:25:36.015Z,89.55
2017-07-24T08:26:37.248Z,89.46
2017-07-24T08:27:38.479Z,90.9
2017-07-24T08:28:39.721Z,91.47
2017-07-24T08:29:41.057Z,91.57
2017-07-24T08:30:42.286Z,92.33
2017-07-24T08:31:43.545Z,92.43
2017-07-24T08:32:44.797Z,91.66
2017-07-24T08:33:46.038Z,91.86
2017-07-24T08:34:47.303Z,92.24
2017-07-24T08:35:48.563Z,91.19
2017-07-24T08:36:49.831Z,90.42
2017-07-24T08:37:51.155Z,90.03
2017-07-24T08:38:52.414Z,90.42
2017-07-24T08:39:53.650Z,89.17
2017-07-24T08:40:54.886Z,90.22
2017-07-24T08:41:56.126Z,90.9
2017-07-24T08:42:57.515Z,89.36
2017-07-24T08:43:58.888Z,89.36
2017-07-24T08:45:00.125Z,89.46
2017-07-24T08:46:01.371Z,89.46
2017-07-24T08:47:02.603Z,89.07
2017-07-24T08:48:03.842Z,90.03
2017-07-24T08:49:05.081Z,88.21
2017-07-24T08:50:06.343Z,88.98
2017-07-24T08:51:07.561Z,89.17
2017-07-24T08:52:08.798Z,87.73
2017-07-24T08:53:10.037Z,85.57
2017-07-24T08:54:11.367Z,85.08
2017-07-24T08:55:12.604Z,85.28
2017-07-24T08:56:13.842Z,85.28
2017-07-24T08:57:15.078Z,84.6
2017-07-24T08:58:16.310Z,84.41
2017-07-24T08:59:17.596Z,85.47
2017-07-24T09:00:18.856Z,85.47
2017-07-24T09:01:20.103Z,85.13
2017-07-24T09:02:21.427Z,84.64
2017-07-24T09:03:22.666Z,85.41
2017-07-24T09:04:23.911Z,84.84
2017-07-24T09:05:25.145Z,84.36
2017-07-24T09:06:26.394Z,83.3
2017-07-24T09:07:27.664Z,84.45
2017-07-24T09:08:28.988Z,86.18
2017-07-24T09:09:30.232Z,86.18
2017-07-24T09:10:31.475Z,85.03
2017-07-24T09:11:32.723Z,83.97
2017-07-24T09:12:33.960Z,83.87
2017-07-24T09:13:35.332Z,84.45
2017-07-24T09:14:36.565Z,83.59
2017-07-24T09:15:37.820Z,83.78
2017-07-24T09:16:39.057Z,83.97
2017-07-24T09:17:40.314Z,85.99
2017-07-24T09:18:41.637Z,86.47
2017-07-24T09:19:42.884Z,85.61
2017-07-24T09:20:44.213Z,85.89
2017-07-24T09:21:45.454Z,86.09
2017-07-24T09:22:46.711Z,84.64
2017-07-24T09:23:47.948Z,83.87
2017-07-24T09:24:49.190Z,83.4
2017-07-24T09:25:50.439Z,83.78
2017-07-24T09:26:51.675Z,83.78
2017-07-24T09:27:52.915Z,86.09
2017-07-24T09:28:54.155Z,85.13
2017-07-24T09:29:55.397Z,84.07
2017-07-24T09:30:56.647Z,85.41
2017-07-24T09:31:57.906Z,85.41
2017-07-24T09:32:59.240Z,85.51
2017-07-24T09:34:00.480Z,86.18
2017-07-24T09:35:01.740Z,88.3
2017-07-24T09:36:02.984Z,88.2
2017-07-24T09:37:04.236Z,87.72
2017-07-24T09:38:05.484Z,88.35
2017-07-24T09:39:06.728Z,88.93
2017-07-24T09:40:08.081Z,88.64
2017-07-24T09:41:09.364Z,88.3
2017-07-24T09:42:10.620Z,89.02
2017-07-24T09:43:11.860Z,89.6
2017-07-24T09:44:13.120Z,89.6
2017-07-24T09:45:14.340Z,88.25
2017-07-24T09:46:15.638Z,86.05
2017-07-24T09:47:16.878Z,86.43
2017-07-24T09:48:18.128Z,86.43
2017-07-24T09:49:19.378Z,85.95
2017-07-24T09:50:20.609Z,86.14
2017-07-24T09:51:21.932Z,87.92
2017-07-24T09:52:23.180Z,88.39
2017-07-24T09:53:24.409Z,89.98
2017-07-24T09:54:25.670Z,87.24
2017-07-24T09:55:26.900Z,86.47
2017-07-24T09:56:28.132Z,84.99
2017-07-24T09:57:29.373Z,86.81
2017-07-24T09:58:30.616Z,85.75
2017-07-24T09:59:31.961Z,87.24
2017-07-24T10:00:33.285Z,86.81
2017-07-24T10:01:34.538Z,86.62
2017-07-24T10:02:35.773Z,87.29
2017-07-24T10:03:37.014Z,86.62
2017-07-24T10:04:38.255Z,86.05
2017-07-24T10:05:39.502Z,86.52
2017-07-24T10:06:40.780Z,86.14
2017-07-24T10:07:42.044Z,85.75
2017-07-24T10:08:43.289Z,84.84
2017-07-24T10:09:44.527Z,84.99
2017-07-24T10:10:45.885Z,83.4
2017-07-24T10:11:47.198Z,83.97
2017-07-24T10:12:48.454Z,83.11
2017-07-24T10:13:49.698Z,83.69
2017-07-24T10:14:50.937Z,84.45
2017-07-24T10:15:52.186Z,85.13
2017-07-24T10:16:53.433Z,86.09
2017-07-24T10:17:54.685Z,86.57
2017-07-24T10:18:55.922Z,86.18
2017-07-24T10:19:57.169Z,86.71
2017-07-24T10:20:58.406Z,86.8
2017-07-24T10:21:59.649Z,87.34
2017-07-24T10:23:00.897Z,86.76
2017-07-24T10:24:02.155Z,87.48
2017-07-24T10:25:03.490Z,87.57
2017-07-24T10:26:04.745Z,86.61
2017-07-24T10:27:05.991Z,87.09
2017-07-24T10:28:07.211Z,87.15
2017-07-24T10:29:08.454Z,87.15
2017-07-24T10:30:09.701Z,85.89
2017-07-24T10:31:11.040Z,86.18
2017-07-24T10:32:12.277Z,87.34
2017-07-24T10:33:13.526Z,87.09
2017-07-24T10:34:14.761Z,88.34
2017-07-24T10:35:16.000Z,87.76
2017-07-24T10:36:17.337Z,86.13
2017-07-24T10:37:18.561Z,85.36
2017-07-24T10:38:19.849Z,87.67
2017-07-24T10:39:21.094Z,87.19
2017-07-24T10:40:22.331Z,84.4
2017-07-24T10:41:23.622Z,85.27
2017-07-24T10:42:24.858Z,85.17
2017-07-24T10:43:26.102Z,86.42
2017-07-24T10:44:27.432Z,86.61
2017-07-24T10:45:28.692Z,86.52
2017-07-24T10:46:29.954Z,85.31
2017-07-24T10:47:31.180Z,85.6
2017-07-24T10:48:32.406Z,86.27
2017-07-24T10:49:33.753Z,83.86
2017-07-24T10:50:34.996Z,82.9
2017-07-24T10:51:36.302Z,83.81
2017-07-24T10:52:37.488Z,81.88
2017-07-24T10:53:38.728Z,80.73
2017-07-24T10:54:40.006Z,79.67
2017-07-24T10:55:41.335Z,78.65
2017-07-24T10:56:42.548Z,79.61
2017-07-24T10:57:43.785Z,78.94
2017-07-24T10:58:45.027Z,77.01
2017-07-24T10:59:46.264Z,78.94
2017-07-24T11:00:47.535Z,80.38
2017-07-24T11:01:48.785Z,79.13
2017-07-24T11:02:50.035Z,78.94
2017-07-24T11:03:51.295Z,80.19
2017-07-24T11:04:52.602Z,81.45
2017-07-24T11:05:53.830Z,78.56
2017-07-24T11:06:55.068Z,79.9
2017-07-24T11:07:56.309Z,82.45
2017-07-24T11:08:57.654Z,80.91
2017-07-24T11:09:59.009Z,80.23
2017-07-24T11:11:00.244Z,81.87
2017-07-24T11:12:01.497Z,76.86
2017-07-24T11:13:02.742Z,78.31
2017-07-24T11:14:03.974Z,80
2017-07-24T11:15:05.229Z,79.81
2017-07-24T11:16:06.474Z,79.9
2017-07-24T11:17:07.798Z,79.03
2017-07-24T11:18:09.032Z,76.82
2017-07-24T11:19:10.259Z,78.98
2017-07-24T11:20:11.509Z,81.48
2017-07-24T11:21:12.744Z,80.52
2017-07-24T11:22:13.985Z,80.14
2017-07-24T11:23:15.331Z,81.48
2017-07-24T11:24:16.594Z,77.83
2017-07-24T11:25:17.834Z,75.99
2017-07-24T11:26:19.079Z,74.1
2017-07-24T11:27:20.310Z,76.61
2017-07-24T11:28:21.618Z,77
2017-07-24T11:29:22.855Z,78.98
2017-07-24T11:30:24.106Z,79.36
2017-07-24T11:31:25.345Z,76.96
2017-07-24T11:32:26.592Z,79.08
2017-07-24T11:33:27.826Z,78.02
2017-07-24T11:34:29.117Z,78.75
2017-07-24T11:35:30.349Z,77.98
2017-07-24T11:36:31.614Z,76.82
2017-07-24T11:37:32.891Z,78.36
2017-07-24T11:38:34.131Z,78.17
2017-07-24T11:39:35.397Z,78.56
2017-07-24T11:40:36.631Z,78.36
2017-07-24T11:41:37.899Z,78.08
2017-07-24T11:42:39.154Z,78.36
2017-07-24T11:43:40.490Z,81.63
2017-07-24T11:44:41.724Z,79.81
2017-07-24T11:45:42.963Z,78.08
2017-07-24T11:46:44.205Z,75.23
2017-07-24T11:47:45.437Z,77.83
2017-07-24T11:48:46.758Z,75.03
2017-07-24T11:49:47.982Z,76.18
2017-07-24T11:50:49.225Z,76.67
2017-07-24T11:51:50.461Z,74.45
2017-07-24T11:52:51.794Z,75.36
2017-07-24T11:53:53.153Z,78.54
2017-07-24T11:54:54.406Z,76.23
2017-07-24T11:55:55.635Z,74.74
2017-07-24T11:56:56.853Z,76.18
2017-07-24T11:57:58.094Z,78.79
2017-07-24T11:58:59.331Z,78.4
2017-07-24T12:00:00.573Z,77.78
2017-07-24T12:01:01.798Z,75.48
2017-07-24T12:02:03.062Z,77.01
2017-07-24T12:03:04.313Z,77.98
2017-07-24T12:04:05.554Z,78.36
2017-07-24T12:05:06.793Z,78.56
2017-07-24T12:06:08.044Z,79.03
2017-07-24T12:07:09.357Z,76.73
2017-07-24T12:08:10.614Z,77.21
2017-07-24T12:09:11.841Z,78.17
2017-07-24T12:10:13.088Z,77.4
2017-07-24T12:11:14.337Z,77.01
2017-07-24T12:12:15.670Z,76.25
2017-07-24T12:13:16.909Z,75.71
2017-07-24T12:14:18.155Z,78.02
2017-07-24T12:15:19.475Z,76.28
2017-07-24T12:16:20.734Z,78.5
2017-07-24T12:17:21.969Z,77.44
2017-07-24T12:18:23.216Z,76.18
2017-07-24T12:19:24.467Z,75.03
2017-07-24T12:20:25.701Z,76.18
2017-07-24T12:21:26.980Z,74.2
2017-07-24T12:22:28.220Z,72.75
2017-07-24T12:23:29.457Z,72.27
2017-07-24T12:24:30.696Z,71.15
2017-07-24T12:25:31.953Z,71.34
2017-07-24T12:26:33.190Z,71.44
2017-07-24T12:27:34.435Z,71.48
2017-07-24T12:28:35.705Z,71.48
2017-07-24T12:29:36.911Z,72.15
2017-07-24T12:30:38.181Z,69.84
2017-07-24T12:31:39.499Z,67.71
2017-07-24T12:32:40.779Z,68.91
2017-07-24T12:33:42.007Z,69.58
2017-07-24T12:34:43.255Z,65.82
2017-07-24T12:35:44.520Z,63.7
2017-07-24T12:36:45.769Z,61.19
2017-07-24T12:37:47.014Z,63.31
2017-07-24T12:38:48.349Z,63.79
2017-07-24T12:39:49.614Z,63.79
2017-07-24T12:40:50.966Z,63.02
2017-07-24T12:41:52.194Z,65.05
2017-07-24T12:42:53.442Z,64.59
2017-07-24T12:43:54.694Z,64.11
2017-07-24T12:44:55.937Z,64.79
2017-07-24T12:45:57.276Z,64.01
2017-07-24T12:46:58.519Z,63.43
2017-07-24T12:47:59.776Z,64.72
2017-07-24T12:49:01.027Z,63.18
2017-07-24T12:50:02.313Z,63.15
2017-07-24T12:51:03.565Z,63.56
2017-07-24T12:52:04.904Z,62.12
2017-07-24T12:53:06.101Z,63.18
2017-07-24T12:54:07.343Z,62.21
2017-07-24T12:55:08.590Z,60.38
2017-07-24T12:56:09.832Z,61.6
2017-07-24T12:57:11.053Z,61.77
2017-07-24T12:58:12.288Z,62.66
2017-07-24T12:59:13.551Z,62.63
2017-07-24T13:00:14.787Z,62.34
2017-07-24T13:01:16.027Z,62.44
2017-07-24T13:02:17.274Z,63.5
2017-07-24T13:03:18.513Z,63.31
2017-07-24T13:04:19.834Z,63.98
2017-07-24T13:05:21.062Z,65.05
2017-07-24T13:06:22.306Z,65.43
2017-07-24T13:07:23.554Z,62.34
2017-07-24T13:08:24.779Z,63.02
2017-07-24T13:09:26.028Z,62.82
2017-07-24T13:10:27.337Z,63.5